sensor_id;sensor_type;location;lat;lon;timestamp;P1;durP1;ratioP1;P2;durP2;ratioP2
19733;SDS011;10018;51.230;7.860;2023-02-15T00:00:21;31.37;;;15.50;;
19733;SDS011;10018;51.230;7.860;2023-02-15T00:02:46;27.37;;;15.30;;
19733;SDS011;10018;51.230;7.860;2023-02-15T00:05:12;30.03;;;15.73;;
19733;SDS011;10018;51.230;7.860;2023-02-15T00:07:38;28.03;;;16.03;;
19733;SDS011;10018;51.230;7.860;2023-02-15T00:10:06;29.50;;;15.70;;
19733;SDS011;10018;51.230;7.860;2023-02-15T00:12:32;27.43;;;16.03;;
19733;SDS011;10018;51.230;7.860;2023-02-15T00:14:58;29.67;;;15.93;;
19733;SDS011;10018;51.230;7.860;2023-02-15T00:17:24;28.97;;;16.03;;
19733;SDS011;10018;51.230;7.860;2023-02-15T00:19:51;31.20;;;16.23;;
19733;SDS011;10018;51.230;7.860;2023-02-15T00:22:17;29.27;;;16.50;;
19733;SDS011;10018;51.230;7.860;2023-02-15T00:24:44;28.97;;;16.17;;
19733;SDS011;10018;51.230;7.860;2023-02-15T00:27:10;33.63;;;17.17;;
19733;SDS011;10018;51.230;7.860;2023-02-15T00:29:36;27.97;;;15.73;;
19733;SDS011;10018;51.230;7.860;2023-02-15T00:32:01;29.07;;;16.07;;
19733;SDS011;10018;51.230;7.860;2023-02-15T00:34:27;29.10;;;15.93;;
19733;SDS011;10018;51.230;7.860;2023-02-15T00:36:53;28.37;;;16.27;;
19733;SDS011;10018;51.230;7.860;2023-02-15T00:39:19;29.27;;;15.47;;
19733;SDS011;10018;51.230;7.860;2023-02-15T00:41:45;29.97;;;15.83;;
19733;SDS011;10018;51.230;7.860;2023-02-15T00:44:12;30.13;;;16.33;;
19733;SDS011;10018;51.230;7.860;2023-02-15T00:46:40;28.77;;;16.07;;
19733;SDS011;10018;51.230;7.860;2023-02-15T00:49:06;31.53;;;16.67;;
19733;SDS011;10018;51.230;7.860;2023-02-15T00:51:35;31.50;;;16.63;;
19733;SDS011;10018;51.230;7.860;2023-02-15T00:54:01;29.03;;;16.63;;
19733;SDS011;10018;51.230;7.860;2023-02-15T00:56:26;30.30;;;16.50;;
19733;SDS011;10018;51.230;7.860;2023-02-15T00:58:53;29.43;;;16.50;;
19733;SDS011;10018;51.230;7.860;2023-02-15T01:01:19;31.20;;;17.27;;
19733;SDS011;10018;51.230;7.860;2023-02-15T01:03:45;30.73;;;16.70;;
19733;SDS011;10018;51.230;7.860;2023-02-15T01:06:14;33.23;;;16.47;;
19733;SDS011;10018;51.230;7.860;2023-02-15T01:08:43;35.40;;;17.07;;
19733;SDS011;10018;51.230;7.860;2023-02-15T01:11:14;31.93;;;17.33;;
19733;SDS011;10018;51.230;7.860;2023-02-15T01:13:47;35.13;;;16.40;;
19733;SDS011;10018;51.230;7.860;2023-02-15T01:16:17;27.90;;;15.83;;
19733;SDS011;10018;51.230;7.860;2023-02-15T01:18:43;31.23;;;17.00;;
19733;SDS011;10018;51.230;7.860;2023-02-15T01:21:12;29.50;;;16.43;;
19733;SDS011;10018;51.230;7.860;2023-02-15T01:23:40;30.47;;;16.70;;
19733;SDS011;10018;51.230;7.860;2023-02-15T01:26:07;29.50;;;16.50;;
19733;SDS011;10018;51.230;7.860;2023-02-15T01:28:33;29.37;;;16.80;;
19733;SDS011;10018;51.230;7.860;2023-02-15T01:30:59;30.43;;;16.77;;
19733;SDS011;10018;51.230;7.860;2023-02-15T01:33:28;30.83;;;16.83;;
19733;SDS011;10018;51.230;7.860;2023-02-15T01:35:57;28.77;;;16.77;;
19733;SDS011;10018;51.230;7.860;2023-02-15T01:38:23;32.47;;;17.07;;
19733;SDS011;10018;51.230;7.860;2023-02-15T01:40:52;35.57;;;18.03;;
19733;SDS011;10018;51.230;7.860;2023-02-15T01:43:19;31.20;;;16.47;;
19733;SDS011;10018;51.230;7.860;2023-02-15T01:45:45;30.23;;;16.93;;
19733;SDS011;10018;51.230;7.860;2023-02-15T01:48:22;31.47;;;16.57;;
19733;SDS011;10018;51.230;7.860;2023-02-15T01:50:53;31.77;;;16.23;;
19733;SDS011;10018;51.230;7.860;2023-02-15T01:53:24;37.70;;;17.60;;
19733;SDS011;10018;51.230;7.860;2023-02-15T01:56:37;34.40;;;17.53;;
19733;SDS011;10018;51.230;7.860;2023-02-15T01:58:48;31.70;;;17.63;;
19733;SDS011;10018;51.230;7.860;2023-02-15T02:01:15;34.33;;;17.87;;
19733;SDS011;10018;51.230;7.860;2023-02-15T02:06:17;35.13;;;17.23;;
19733;SDS011;10018;51.230;7.860;2023-02-15T02:08:45;31.00;;;17.43;;
19733;SDS011;10018;51.230;7.860;2023-02-15T02:11:12;31.17;;;16.50;;
19733;SDS011;10018;51.230;7.860;2023-02-15T02:13:39;32.43;;;17.43;;
19733;SDS011;10018;51.230;7.860;2023-02-15T02:17:10;31.20;;;17.23;;
19733;SDS011;10018;51.230;7.860;2023-02-15T02:32:50;29.87;;;16.13;;
19733;SDS011;10018;51.230;7.860;2023-02-15T02:38:04;30.73;;;16.97;;
19733;SDS011;10018;51.230;7.860;2023-02-15T02:49:09;30.10;;;16.57;;
19733;SDS011;10018;51.230;7.860;2023-02-15T02:51:34;32.60;;;17.20;;
19733;SDS011;10018;51.230;7.860;2023-02-15T02:54:03;28.03;;;16.47;;
19733;SDS011;10018;51.230;7.860;2023-02-15T02:56:39;32.93;;;16.70;;
19733;SDS011;10018;51.230;7.860;2023-02-15T02:59:12;35.43;;;17.43;;
19733;SDS011;10018;51.230;7.860;2023-02-15T03:01:46;31.83;;;17.20;;
19733;SDS011;10018;51.230;7.860;2023-02-15T03:04:22;32.83;;;17.40;;
19733;SDS011;10018;51.230;7.860;2023-02-15T03:06:53;32.23;;;17.63;;
19733;SDS011;10018;51.230;7.860;2023-02-15T03:09:27;31.30;;;16.93;;
19733;SDS011;10018;51.230;7.860;2023-02-15T03:14:56;31.47;;;16.90;;
19733;SDS011;10018;51.230;7.860;2023-02-15T03:17:26;31.43;;;17.63;;
19733;SDS011;10018;51.230;7.860;2023-02-15T03:19:56;34.93;;;17.53;;
19733;SDS011;10018;51.230;7.860;2023-02-15T03:22:36;34.07;;;17.63;;
19733;SDS011;10018;51.230;7.860;2023-02-15T03:27:43;30.47;;;17.47;;
19733;SDS011;10018;51.230;7.860;2023-02-15T03:30:12;34.47;;;17.87;;
19733;SDS011;10018;51.230;7.860;2023-02-15T03:32:40;31.17;;;17.20;;
19733;SDS011;10018;51.230;7.860;2023-02-15T03:35:08;33.27;;;16.83;;
19733;SDS011;10018;51.230;7.860;2023-02-15T03:37:41;33.03;;;17.77;;
19733;SDS011;10018;51.230;7.860;2023-02-15T03:40:24;33.07;;;16.90;;
19733;SDS011;10018;51.230;7.860;2023-02-15T03:43:19;34.23;;;18.03;;
19733;SDS011;10018;51.230;7.860;2023-02-15T03:45:53;36.47;;;18.70;;
19733;SDS011;10018;51.230;7.860;2023-02-15T03:48:36;34.20;;;17.43;;
19733;SDS011;10018;51.230;7.860;2023-02-15T03:51:10;33.60;;;18.03;;
19733;SDS011;10018;51.230;7.860;2023-02-15T03:54:00;33.03;;;17.67;;
19733;SDS011;10018;51.230;7.860;2023-02-15T03:56:34;31.43;;;17.37;;
19733;SDS011;10018;51.230;7.860;2023-02-15T03:59:02;36.23;;;18.20;;
19733;SDS011;10018;51.230;7.860;2023-02-15T04:01:48;36.50;;;19.03;;
19733;SDS011;10018;51.230;7.860;2023-02-15T04:04:46;37.77;;;17.87;;
19733;SDS011;10018;51.230;7.860;2023-02-15T04:07:12;35.53;;;17.83;;
19733;SDS011;10018;51.230;7.860;2023-02-15T04:09:40;34.00;;;18.47;;
19733;SDS011;10018;51.230;7.860;2023-02-15T04:12:24;35.10;;;17.60;;
19733;SDS011;10018;51.230;7.860;2023-02-15T04:14:49;33.97;;;18.47;;
19733;SDS011;10018;51.230;7.860;2023-02-15T04:17:36;36.70;;;18.90;;
19733;SDS011;10018;51.230;7.860;2023-02-15T04:20:02;36.33;;;17.43;;
19733;SDS011;10018;51.230;7.860;2023-02-15T04:22:46;33.80;;;17.80;;
19733;SDS011;10018;51.230;7.860;2023-02-15T04:25:30;33.20;;;18.00;;
19733;SDS011;10018;51.230;7.860;2023-02-15T04:27:56;31.47;;;17.37;;
19733;SDS011;10018;51.230;7.860;2023-02-15T04:30:23;33.33;;;17.63;;
19733;SDS011;10018;51.230;7.860;2023-02-15T04:32:49;35.00;;;17.87;;
19733;SDS011;10018;51.230;7.860;2023-02-15T04:35:15;34.87;;;17.93;;
19733;SDS011;10018;51.230;7.860;2023-02-15T04:37:41;35.30;;;17.90;;
19733;SDS011;10018;51.230;7.860;2023-02-15T04:40:08;33.23;;;17.73;;
19733;SDS011;10018;51.230;7.860;2023-02-15T04:42:35;35.90;;;17.00;;
19733;SDS011;10018;51.230;7.860;2023-02-15T04:45:01;35.53;;;17.17;;
19733;SDS011;10018;51.230;7.860;2023-02-15T04:47:27;36.23;;;18.27;;
19733;SDS011;10018;51.230;7.860;2023-02-15T04:49:53;38.13;;;18.30;;
19733;SDS011;10018;51.230;7.860;2023-02-15T04:52:18;35.80;;;18.63;;
19733;SDS011;10018;51.230;7.860;2023-02-15T04:54:44;32.00;;;17.27;;
19733;SDS011;10018;51.230;7.860;2023-02-15T04:57:10;35.27;;;17.17;;
19733;SDS011;10018;51.230;7.860;2023-02-15T04:59:35;37.57;;;16.80;;
19733;SDS011;10018;51.230;7.860;2023-02-15T05:02:01;33.47;;;16.73;;
19733;SDS011;10018;51.230;7.860;2023-02-15T05:04:27;34.43;;;17.73;;
19733;SDS011;10018;51.230;7.860;2023-02-15T05:06:53;33.37;;;17.10;;
19733;SDS011;10018;51.230;7.860;2023-02-15T05:09:18;34.47;;;17.87;;
19733;SDS011;10018;51.230;7.860;2023-02-15T05:11:46;31.47;;;17.20;;
19733;SDS011;10018;51.230;7.860;2023-02-15T05:14:11;37.37;;;17.63;;
19733;SDS011;10018;51.230;7.860;2023-02-15T05:16:37;34.50;;;17.80;;
19733;SDS011;10018;51.230;7.860;2023-02-15T05:19:03;31.33;;;17.57;;
19733;SDS011;10018;51.230;7.860;2023-02-15T05:21:28;36.87;;;19.10;;
19733;SDS011;10018;51.230;7.860;2023-02-15T05:23:54;35.50;;;18.53;;
19733;SDS011;10018;51.230;7.860;2023-02-15T05:26:21;33.00;;;18.57;;
19733;SDS011;10018;51.230;7.860;2023-02-15T05:29:07;43.03;;;21.73;;
19733;SDS011;10018;51.230;7.860;2023-02-15T05:31:35;76.47;;;31.63;;
19733;SDS011;10018;51.230;7.860;2023-02-15T05:34:01;53.40;;;26.60;;
19733;SDS011;10018;51.230;7.860;2023-02-15T05:36:27;51.33;;;26.03;;
19733;SDS011;10018;51.230;7.860;2023-02-15T05:38:53;46.53;;;23.23;;
19733;SDS011;10018;51.230;7.860;2023-02-15T05:41:19;55.33;;;27.77;;
19733;SDS011;10018;51.230;7.860;2023-02-15T05:43:45;51.80;;;26.30;;
19733;SDS011;10018;51.230;7.860;2023-02-15T05:46:11;86.97;;;39.77;;
19733;SDS011;10018;51.230;7.860;2023-02-15T05:48:39;55.23;;;27.60;;
19733;SDS011;10018;51.230;7.860;2023-02-15T05:51:09;53.87;;;26.97;;
19733;SDS011;10018;51.230;7.860;2023-02-15T05:53:39;44.30;;;22.97;;
19733;SDS011;10018;51.230;7.860;2023-02-15T05:56:06;42.60;;;23.30;;
19733;SDS011;10018;51.230;7.860;2023-02-15T05:58:38;55.00;;;29.30;;
19733;SDS011;10018;51.230;7.860;2023-02-15T06:01:17;54.93;;;28.47;;
19733;SDS011;10018;51.230;7.860;2023-02-15T06:03:47;44.47;;;24.07;;
19733;SDS011;10018;51.230;7.860;2023-02-15T06:06:13;46.67;;;23.33;;
19733;SDS011;10018;51.230;7.860;2023-02-15T06:08:39;45.03;;;24.27;;
19733;SDS011;10018;51.230;7.860;2023-02-15T06:11:05;40.93;;;21.43;;
19733;SDS011;10018;51.230;7.860;2023-02-15T06:13:31;42.07;;;22.70;;
19733;SDS011;10018;51.230;7.860;2023-02-15T06:15:57;42.97;;;22.87;;
19733;SDS011;10018;51.230;7.860;2023-02-15T06:18:23;47.33;;;23.17;;
19733;SDS011;10018;51.230;7.860;2023-02-15T06:20:49;41.00;;;20.47;;
19733;SDS011;10018;51.230;7.860;2023-02-15T06:23:14;39.67;;;19.67;;
19733;SDS011;10018;51.230;7.860;2023-02-15T06:25:44;39.10;;;20.37;;
19733;SDS011;10018;51.230;7.860;2023-02-15T06:28:10;38.10;;;19.80;;
19733;SDS011;10018;51.230;7.860;2023-02-15T06:30:38;36.83;;;18.93;;
19733;SDS011;10018;51.230;7.860;2023-02-15T06:33:04;41.07;;;20.23;;
19733;SDS011;10018;51.230;7.860;2023-02-15T06:35:29;37.70;;;19.93;;
19733;SDS011;10018;51.230;7.860;2023-02-15T06:37:55;40.67;;;19.80;;
19733;SDS011;10018;51.230;7.860;2023-02-15T06:40:20;33.33;;;18.30;;
19733;SDS011;10018;51.230;7.860;2023-02-15T06:42:46;40.27;;;19.23;;
19733;SDS011;10018;51.230;7.860;2023-02-15T06:45:12;45.10;;;20.73;;
19733;SDS011;10018;51.230;7.860;2023-02-15T06:47:37;41.23;;;20.23;;
19733;SDS011;10018;51.230;7.860;2023-02-15T06:50:04;36.97;;;20.07;;
19733;SDS011;10018;51.230;7.860;2023-02-15T06:52:33;37.10;;;19.53;;
19733;SDS011;10018;51.230;7.860;2023-02-15T06:54:59;40.17;;;20.43;;
19733;SDS011;10018;51.230;7.860;2023-02-15T06:57:24;43.33;;;20.40;;
19733;SDS011;10018;51.230;7.860;2023-02-15T06:59:50;40.47;;;20.17;;
19733;SDS011;10018;51.230;7.860;2023-02-15T07:02:15;39.27;;;19.70;;
19733;SDS011;10018;51.230;7.860;2023-02-15T07:04:41;38.97;;;20.00;;
19733;SDS011;10018;51.230;7.860;2023-02-15T07:07:10;41.63;;;20.70;;
19733;SDS011;10018;51.230;7.860;2023-02-15T07:09:38;41.07;;;20.10;;
19733;SDS011;10018;51.230;7.860;2023-02-15T07:12:07;42.53;;;20.87;;
19733;SDS011;10018;51.230;7.860;2023-02-15T07:14:51;38.87;;;19.73;;
19733;SDS011;10018;51.230;7.860;2023-02-15T07:17:17;44.77;;;20.23;;
19733;SDS011;10018;51.230;7.860;2023-02-15T07:19:42;40.23;;;20.57;;
19733;SDS011;10018;51.230;7.860;2023-02-15T07:22:08;42.53;;;20.00;;
19733;SDS011;10018;51.230;7.860;2023-02-15T07:24:34;40.57;;;20.40;;
19733;SDS011;10018;51.230;7.860;2023-02-15T07:26:59;40.83;;;20.40;;
19733;SDS011;10018;51.230;7.860;2023-02-15T07:29:25;37.57;;;19.97;;
19733;SDS011;10018;51.230;7.860;2023-02-15T07:31:50;39.50;;;19.67;;
19733;SDS011;10018;51.230;7.860;2023-02-15T07:34:16;40.27;;;19.87;;
19733;SDS011;10018;51.230;7.860;2023-02-15T07:36:42;38.50;;;20.13;;
19733;SDS011;10018;51.230;7.860;2023-02-15T07:39:09;42.40;;;20.37;;
19733;SDS011;10018;51.230;7.860;2023-02-15T07:41:37;42.80;;;20.57;;
19733;SDS011;10018;51.230;7.860;2023-02-15T07:44:03;38.17;;;19.80;;
19733;SDS011;10018;51.230;7.860;2023-02-15T07:46:29;39.60;;;19.97;;
19733;SDS011;10018;51.230;7.860;2023-02-15T07:48:55;41.70;;;20.70;;
19733;SDS011;10018;51.230;7.860;2023-02-15T07:51:20;96.70;;;45.20;;
19733;SDS011;10018;51.230;7.860;2023-02-15T07:53:46;52.80;;;28.03;;
19733;SDS011;10018;51.230;7.860;2023-02-15T07:56:12;46.67;;;21.90;;
19733;SDS011;10018;51.230;7.860;2023-02-15T07:58:41;34.70;;;19.60;;
19733;SDS011;10018;51.230;7.860;2023-02-15T08:01:16;36.47;;;18.73;;
19733;SDS011;10018;51.230;7.860;2023-02-15T08:03:43;40.07;;;19.73;;
19733;SDS011;10018;51.230;7.860;2023-02-15T08:06:09;43.23;;;19.73;;
19733;SDS011;10018;51.230;7.860;2023-02-15T08:08:36;43.87;;;19.77;;
19733;SDS011;10018;51.230;7.860;2023-02-15T08:13:56;39.40;;;19.20;;
19733;SDS011;10018;51.230;7.860;2023-02-15T08:16:30;35.83;;;18.73;;
19733;SDS011;10018;51.230;7.860;2023-02-15T08:19:01;35.37;;;17.57;;
19733;SDS011;10018;51.230;7.860;2023-02-15T08:21:31;34.00;;;18.13;;
19733;SDS011;10018;51.230;7.860;2023-02-15T08:23:58;37.57;;;18.17;;
19733;SDS011;10018;51.230;7.860;2023-02-15T08:26:24;39.40;;;18.27;;
19733;SDS011;10018;51.230;7.860;2023-02-15T08:28:51;37.77;;;18.33;;
19733;SDS011;10018;51.230;7.860;2023-02-15T08:31:17;37.53;;;18.83;;
19733;SDS011;10018;51.230;7.860;2023-02-15T08:33:44;36.53;;;18.37;;
19733;SDS011;10018;51.230;7.860;2023-02-15T08:36:14;35.87;;;18.53;;
19733;SDS011;10018;51.230;7.860;2023-02-15T08:38:42;41.20;;;19.97;;
19733;SDS011;10018;51.230;7.860;2023-02-15T08:41:18;39.33;;;20.43;;
19733;SDS011;10018;51.230;7.860;2023-02-15T08:43:46;36.67;;;19.57;;
19733;SDS011;10018;51.230;7.860;2023-02-15T08:46:13;38.33;;;19.83;;
19733;SDS011;10018;51.230;7.860;2023-02-15T08:48:40;36.83;;;19.70;;
19733;SDS011;10018;51.230;7.860;2023-02-15T08:51:07;39.27;;;20.20;;
19733;SDS011;10018;51.230;7.860;2023-02-15T08:53:39;37.13;;;19.70;;
19733;SDS011;10018;51.230;7.860;2023-02-15T08:56:06;35.87;;;18.93;;
19733;SDS011;10018;51.230;7.860;2023-02-15T08:58:34;36.73;;;19.27;;
19733;SDS011;10018;51.230;7.860;2023-02-15T09:01:00;35.07;;;19.10;;
19733;SDS011;10018;51.230;7.860;2023-02-15T09:03:29;36.73;;;19.70;;
19733;SDS011;10018;51.230;7.860;2023-02-15T09:05:58;34.57;;;18.63;;
19733;SDS011;10018;51.230;7.860;2023-02-15T09:08:24;33.57;;;18.03;;
19733;SDS011;10018;51.230;7.860;2023-02-15T09:10:51;35.17;;;18.87;;
19733;SDS011;10018;51.230;7.860;2023-02-15T09:13:16;34.83;;;18.30;;
19733;SDS011;10018;51.230;7.860;2023-02-15T09:15:42;33.00;;;18.03;;
19733;SDS011;10018;51.230;7.860;2023-02-15T09:18:07;34.47;;;18.97;;
19733;SDS011;10018;51.230;7.860;2023-02-15T09:20:36;33.47;;;18.93;;
19733;SDS011;10018;51.230;7.860;2023-02-15T09:23:01;33.17;;;17.50;;
19733;SDS011;10018;51.230;7.860;2023-02-15T09:25:29;36.63;;;18.13;;
19733;SDS011;10018;51.230;7.860;2023-02-15T09:27:55;32.10;;;17.90;;
19733;SDS011;10018;51.230;7.860;2023-02-15T09:30:20;31.47;;;16.70;;
19733;SDS011;10018;51.230;7.860;2023-02-15T09:32:47;32.70;;;18.63;;
19733;SDS011;10018;51.230;7.860;2023-02-15T09:35:12;28.80;;;17.30;;
19733;SDS011;10018;51.230;7.860;2023-02-15T09:37:38;29.90;;;16.80;;
19733;SDS011;10018;51.230;7.860;2023-02-15T09:40:04;28.47;;;16.57;;
19733;SDS011;10018;51.230;7.860;2023-02-15T09:42:38;31.10;;;16.47;;
19733;SDS011;10018;51.230;7.860;2023-02-15T09:56:02;28.83;;;16.43;;
19733;SDS011;10018;51.230;7.860;2023-02-15T10:12:36;28.70;;;14.23;;
19733;SDS011;10018;51.230;7.860;2023-02-15T10:17:55;25.93;;;14.57;;
19733;SDS011;10018;51.230;7.860;2023-02-15T10:26:21;25.07;;;14.07;;
19733;SDS011;10018;51.230;7.860;2023-02-15T10:28:55;25.30;;;14.60;;
19733;SDS011;10018;51.230;7.860;2023-02-15T10:42:31;23.83;;;13.10;;
19733;SDS011;10018;51.230;7.860;2023-02-15T10:50:48;25.07;;;13.57;;
19733;SDS011;10018;51.230;7.860;2023-02-15T10:53:24;22.30;;;12.67;;
19733;SDS011;10018;51.230;7.860;2023-02-15T10:56:03;24.10;;;12.87;;
19733;SDS011;10018;51.230;7.860;2023-02-15T11:06:42;20.63;;;12.20;;
19733;SDS011;10018;51.230;7.860;2023-02-15T11:09:13;22.80;;;12.10;;
19733;SDS011;10018;51.230;7.860;2023-02-15T11:11:43;24.60;;;13.00;;
19733;SDS011;10018;51.230;7.860;2023-02-15T11:14:15;21.03;;;13.07;;
19733;SDS011;10018;51.230;7.860;2023-02-15T11:16:59;21.53;;;13.23;;
19733;SDS011;10018;51.230;7.860;2023-02-15T11:19:41;25.10;;;13.53;;
19733;SDS011;10018;51.230;7.860;2023-02-15T11:22:27;23.40;;;13.50;;
19733;SDS011;10018;51.230;7.860;2023-02-15T11:24:55;24.57;;;13.20;;
19733;SDS011;10018;51.230;7.860;2023-02-15T11:27:25;26.90;;;13.07;;
19733;SDS011;10018;51.230;7.860;2023-02-15T11:32:28;21.17;;;12.20;;
19733;SDS011;10018;51.230;7.860;2023-02-15T11:38:18;21.33;;;12.60;;
19733;SDS011;10018;51.230;7.860;2023-02-15T11:40:25;21.73;;;12.33;;
19733;SDS011;10018;51.230;7.860;2023-02-15T11:42:56;21.63;;;12.43;;
19733;SDS011;10018;51.230;7.860;2023-02-15T11:45:31;19.67;;;12.43;;
19733;SDS011;10018;51.230;7.860;2023-02-15T11:47:59;23.80;;;12.37;;
19733;SDS011;10018;51.230;7.860;2023-02-15T11:50:29;21.60;;;12.73;;
19733;SDS011;10018;51.230;7.860;2023-02-15T11:53:17;22.40;;;12.10;;
19733;SDS011;10018;51.230;7.860;2023-02-15T11:55:47;23.57;;;12.53;;
19733;SDS011;10018;51.230;7.860;2023-02-15T12:00:47;21.50;;;12.00;;
19733;SDS011;10018;51.230;7.860;2023-02-15T12:08:51;17.87;;;11.53;;
19733;SDS011;10018;51.230;7.860;2023-02-15T12:11:38;22.80;;;12.23;;
19733;SDS011;10018;51.230;7.860;2023-02-15T12:14:06;20.83;;;11.17;;
19733;SDS011;10018;51.230;7.860;2023-02-15T12:16:55;18.00;;;11.23;;
19733;SDS011;10018;51.230;7.860;2023-02-15T12:19:36;18.47;;;11.67;;
19733;SDS011;10018;51.230;7.860;2023-02-15T12:22:05;22.80;;;12.07;;
19733;SDS011;10018;51.230;7.860;2023-02-15T12:24:46;19.23;;;10.40;;
19733;SDS011;10018;51.230;7.860;2023-02-15T12:27:20;20.73;;;10.67;;
19733;SDS011;10018;51.230;7.860;2023-02-15T12:30:07;19.03;;;11.13;;
19733;SDS011;10018;51.230;7.860;2023-02-15T12:33:15;20.53;;;11.53;;
19733;SDS011;10018;51.230;7.860;2023-02-15T12:35:54;19.17;;;10.73;;
19733;SDS011;10018;51.230;7.860;2023-02-15T12:38:23;16.77;;;9.40;;
19733;SDS011;10018;51.230;7.860;2023-02-15T12:41:03;16.90;;;9.50;;
19733;SDS011;10018;51.230;7.860;2023-02-15T12:43:47;15.97;;;9.30;;
19733;SDS011;10018;51.230;7.860;2023-02-15T12:46:29;16.67;;;9.30;;
19733;SDS011;10018;51.230;7.860;2023-02-15T12:49:07;17.80;;;9.87;;
19733;SDS011;10018;51.230;7.860;2023-02-15T12:51:52;17.70;;;9.53;;
19733;SDS011;10018;51.230;7.860;2023-02-15T12:54:39;16.17;;;8.90;;
19733;SDS011;10018;51.230;7.860;2023-02-15T13:08:17;16.17;;;10.37;;
19733;SDS011;10018;51.230;7.860;2023-02-15T13:10:54;18.90;;;11.57;;
19733;SDS011;10018;51.230;7.860;2023-02-15T13:13:52;19.27;;;9.63;;
19733;SDS011;10018;51.230;7.860;2023-02-15T13:16:23;16.90;;;9.53;;
19733;SDS011;10018;51.230;7.860;2023-02-15T13:18:56;17.67;;;10.57;;
19733;SDS011;10018;51.230;7.860;2023-02-15T13:21:33;15.37;;;9.57;;
19733;SDS011;10018;51.230;7.860;2023-02-15T13:24:06;16.30;;;8.57;;
19733;SDS011;10018;51.230;7.860;2023-02-15T13:26:41;17.53;;;8.40;;
19733;SDS011;10018;51.230;7.860;2023-02-15T13:29:28;15.17;;;8.93;;
19733;SDS011;10018;51.230;7.860;2023-02-15T13:32:01;18.87;;;9.27;;
19733;SDS011;10018;51.230;7.860;2023-02-15T13:34:40;15.40;;;8.70;;
19733;SDS011;10018;51.230;7.860;2023-02-15T13:39:51;14.00;;;8.27;;
19733;SDS011;10018;51.230;7.860;2023-02-15T13:42:47;15.37;;;7.83;;
19733;SDS011;10018;51.230;7.860;2023-02-15T13:56:16;20.23;;;9.77;;
19733;SDS011;10018;51.230;7.860;2023-02-15T14:11:04;16.83;;;9.40;;
19733;SDS011;10018;51.230;7.860;2023-02-15T14:16:15;18.83;;;9.60;;
19733;SDS011;10018;51.230;7.860;2023-02-15T14:26:45;15.63;;;8.90;;
19733;SDS011;10018;51.230;7.860;2023-02-15T14:32:38;15.67;;;9.17;;
19733;SDS011;10018;51.230;7.860;2023-02-15T14:35:17;13.97;;;9.47;;
19733;SDS011;10018;51.230;7.860;2023-02-15T14:40:38;16.60;;;9.20;;
19733;SDS011;10018;51.230;7.860;2023-02-15T14:43:47;13.83;;;8.20;;
19733;SDS011;10018;51.230;7.860;2023-02-15T14:49:11;13.87;;;9.23;;
19733;SDS011;10018;51.230;7.860;2023-02-15T15:02:29;13.83;;;8.73;;
19733;SDS011;10018;51.230;7.860;2023-02-15T15:07:44;16.27;;;9.80;;
19733;SDS011;10018;51.230;7.860;2023-02-15T15:12:45;17.47;;;9.50;;
19733;SDS011;10018;51.230;7.860;2023-02-15T15:17:57;12.47;;;8.20;;
19733;SDS011;10018;51.230;7.860;2023-02-15T15:20:57;14.53;;;8.47;;
19733;SDS011;10018;51.230;7.860;2023-02-15T15:31:30;15.33;;;9.17;;
19733;SDS011;10018;51.230;7.860;2023-02-15T15:42:22;21.03;;;11.63;;
19733;SDS011;10018;51.230;7.860;2023-02-15T15:47:52;16.80;;;8.70;;
19733;SDS011;10018;51.230;7.860;2023-02-15T15:50:25;14.37;;;8.60;;
19733;SDS011;10018;51.230;7.860;2023-02-15T15:52:55;14.30;;;8.83;;
19733;SDS011;10018;51.230;7.860;2023-02-15T15:55:24;16.60;;;9.30;;
19733;SDS011;10018;51.230;7.860;2023-02-15T15:58:12;15.43;;;8.03;;
19733;SDS011;10018;51.230;7.860;2023-02-15T16:00:42;22.57;;;14.77;;
19733;SDS011;10018;51.230;7.860;2023-02-15T16:03:15;21.10;;;13.30;;
19733;SDS011;10018;51.230;7.860;2023-02-15T16:05:45;21.90;;;13.97;;
19733;SDS011;10018;51.230;7.860;2023-02-15T16:08:10;36.30;;;22.17;;
19733;SDS011;10018;51.230;7.860;2023-02-15T16:10:39;36.80;;;21.50;;
19733;SDS011;10018;51.230;7.860;2023-02-15T16:13:06;46.23;;;24.43;;
19733;SDS011;10018;51.230;7.860;2023-02-15T16:18:10;45.27;;;25.67;;
19733;SDS011;10018;51.230;7.860;2023-02-15T16:20:54;28.80;;;17.50;;
19733;SDS011;10018;51.230;7.860;2023-02-15T16:29:15;36.17;;;23.80;;
19733;SDS011;10018;51.230;7.860;2023-02-15T16:31:42;28.43;;;18.53;;
19733;SDS011;10018;51.230;7.860;2023-02-15T16:34:17;42.40;;;29.33;;
19733;SDS011;10018;51.230;7.860;2023-02-15T16:36:43;20.07;;;12.60;;
19733;SDS011;10018;51.230;7.860;2023-02-15T16:39:18;22.20;;;13.07;;
19733;SDS011;10018;51.230;7.860;2023-02-15T16:41:45;29.27;;;19.43;;
19733;SDS011;10018;51.230;7.860;2023-02-15T16:44:17;22.33;;;11.73;;
19733;SDS011;10018;51.230;7.860;2023-02-15T16:46:46;25.67;;;13.43;;
19733;SDS011;10018;51.230;7.860;2023-02-15T16:49:21;26.67;;;13.23;;
19733;SDS011;10018;51.230;7.860;2023-02-15T16:51:59;24.07;;;12.53;;
19733;SDS011;10018;51.230;7.860;2023-02-15T16:54:31;24.67;;;14.20;;
19733;SDS011;10018;51.230;7.860;2023-02-15T16:57:00;25.13;;;12.63;;
19733;SDS011;10018;51.230;7.860;2023-02-15T16:59:37;22.03;;;11.77;;
19733;SDS011;10018;51.230;7.860;2023-02-15T17:02:15;23.27;;;13.77;;
19733;SDS011;10018;51.230;7.860;2023-02-15T17:04:59;27.07;;;13.50;;
19733;SDS011;10018;51.230;7.860;2023-02-15T17:07:31;24.57;;;13.90;;
19733;SDS011;10018;51.230;7.860;2023-02-15T17:09:58;23.23;;;12.67;;
19733;SDS011;10018;51.230;7.860;2023-02-15T17:12:43;23.73;;;14.70;;
19733;SDS011;10018;51.230;7.860;2023-02-15T17:17:56;26.80;;;13.47;;
19733;SDS011;10018;51.230;7.860;2023-02-15T17:20:41;23.63;;;14.67;;
19733;SDS011;10018;51.230;7.860;2023-02-15T17:23:21;43.30;;;31.97;;
19733;SDS011;10018;51.230;7.860;2023-02-15T17:25:58;30.80;;;20.83;;
19733;SDS011;10018;51.230;7.860;2023-02-15T17:28:27;35.33;;;24.47;;
19733;SDS011;10018;51.230;7.860;2023-02-15T17:30:55;27.00;;;17.23;;
19733;SDS011;10018;51.230;7.860;2023-02-15T17:36:03;74.00;;;37.47;;
19733;SDS011;10018;51.230;7.860;2023-02-15T17:39:29;48.33;;;25.83;;
19733;SDS011;10018;51.230;7.860;2023-02-15T17:41:47;54.43;;;37.73;;
19733;SDS011;10018;51.230;7.860;2023-02-15T17:44:12;34.43;;;24.17;;
19733;SDS011;10018;51.230;7.860;2023-02-15T17:46:40;32.60;;;22.57;;
19733;SDS011;10018;51.230;7.860;2023-02-15T17:49:10;28.17;;;17.90;;
19733;SDS011;10018;51.230;7.860;2023-02-15T17:51:47;29.63;;;18.27;;
19733;SDS011;10018;51.230;7.860;2023-02-15T17:54:13;35.47;;;21.63;;
19733;SDS011;10018;51.230;7.860;2023-02-15T17:56:57;41.77;;;26.67;;
19733;SDS011;10018;51.230;7.860;2023-02-15T17:59:27;114.50;;;63.13;;
19733;SDS011;10018;51.230;7.860;2023-02-15T18:01:52;124.10;;;77.47;;
19733;SDS011;10018;51.230;7.860;2023-02-15T18:04:36;104.20;;;62.03;;
19733;SDS011;10018;51.230;7.860;2023-02-15T18:07:23;24.13;;;13.50;;
19733;SDS011;10018;51.230;7.860;2023-02-15T18:10:14;28.40;;;16.87;;
19733;SDS011;10018;51.230;7.860;2023-02-15T18:13:00;31.20;;;17.63;;
19733;SDS011;10018;51.230;7.860;2023-02-15T18:15:25;28.77;;;18.87;;
19733;SDS011;10018;51.230;7.860;2023-02-15T18:17:51;28.70;;;16.47;;
19733;SDS011;10018;51.230;7.860;2023-02-15T18:20:25;29.20;;;18.23;;
19733;SDS011;10018;51.230;7.860;2023-02-15T18:22:57;26.67;;;14.77;;